Artesia Wells, TX

3:20 AM CST on March 03, 2015 (GMT -0600)
Cotulla-La Salle County | Change Station
CLOSE
Current Station
Airport
Location: Cotulla,
Elevation: 476 ft
Nearby Weather Stations

Elev 476 ft 28.46 °N, 99.22 °W | Updated 27 minutes ago

Overcast
Overcast
48 °F
Feels Like 48 °F
N
4
Wind Variable Wind from West

Today
High -- | Low -- °F
--% Chance of Precip.
Yesterday
High -- | Low -- °F
Precip. -- in
7:00 AM 6:38 PM
Waxing Gibbous, 95% visible
Pressure 30.06 in
Visibility 4.0 miles
Clouds Overcast 200 ft
Dew Point 45 °F
Humidity 87%
Rainfall 0.00 in
Snow Depth Not available.
UV 0 out of 12
Pollen 9.10 out of 12
Air Quality Not available.
Flu Activity Not available.
METAR KCOT 030853Z AUTO 27003KT 4SM BR OVC002 09/07 A3006

More Conditions Fewer Conditions

Pressure 30.06 in
Visibility 4.0 miles
Clouds Overcast 200 ft
Dew Point 45 °F
Humidity 87%
Rainfall 0.00 in
Snow Depth Not available.
UV 0 out of 12
Pollen 9.10 out of 12
Air Quality Not available.
Flu Activity Not available.
METAR KCOT 030853Z AUTO 27003KT 4SM BR OVC002 09/07 A3006

More Conditions Fewer Conditions

Nowcast | as of 2:55 am CST on March 3, 2015

Through 600 am CST...patchy light rain and drizzle will continue to affect south Texas and the adjacent coastal waters this morning. In addition...fog will become dense along the coastal Bend...the bays and waterways... and the near shore waters...with the visibility lowering to 1/4 of a mile. Expect the visibility across the coastal plains and the brush country to range from 1 to 3 miles.

×

10-Day Weather Forecast

Almanac

Astronomy

Mar. 03, 2015 Rise Set
Actual Time
Civil Twilight
Nautical Twilight
Astronomical Twilight
Moon
Length of Visible Light
Length of Day
Tomorrow will be .
, % of the Moon is Illuminated

Today's Extremes

State Highs State Lows

Community

WunderPhotos

Upload Photos

1,802,075 photos uploaded!

WunderBlogs® & News

Nearby

Air Quality

  Air Quality AQ Index Pollutant
Not available.

Snow Depth

Station Depth Elevation

Earthquake Activity

City Distance Mag. Time & Date
Minimum magnitude displayed is 2.5.

Coastal Water Temperatures

Place Temperature

Nearby Weather Stations